sensor_id;sensor_type;location;lat;lon;timestamp;temperature;humidity
22081;DHT22;11207;59.512;18.050;2022-10-26T00:00:00;10.70;99.90
22081;DHT22;11207;59.512;18.050;2022-10-26T00:02:26;10.80;99.90
22081;DHT22;11207;59.512;18.050;2022-10-26T00:04:51;10.70;99.90
22081;DHT22;11207;59.512;18.050;2022-10-26T00:07:17;10.70;99.90
22081;DHT22;11207;59.512;18.050;2022-10-26T00:09:42;10.70;99.90
22081;DHT22;11207;59.512;18.050;2022-10-26T00:12:08;10.70;99.90
22081;DHT22;11207;59.512;18.050;2022-10-26T00:14:34;10.70;99.90
22081;DHT22;11207;59.512;18.050;2022-10-26T00:16:59;10.70;99.90
22081;DHT22;11207;59.512;18.050;2022-10-26T00:19:25;10.70;99.90
22081;DHT22;11207;59.512;18.050;2022-10-26T00:21:51;10.70;99.90
22081;DHT22;11207;59.512;18.050;2022-10-26T00:24:16;10.60;99.90
22081;DHT22;11207;59.512;18.050;2022-10-26T00:26:42;10.60;99.90
22081;DHT22;11207;59.512;18.050;2022-10-26T00:29:12;10.60;99.90
22081;DHT22;11207;59.512;18.050;2022-10-26T00:31:38;10.60;99.90
22081;DHT22;11207;59.512;18.050;2022-10-26T00:34:04;10.60;99.90
22081;DHT22;11207;59.512;18.050;2022-10-26T00:36:30;10.60;99.90
22081;DHT22;11207;59.512;18.050;2022-10-26T00:38:56;10.50;99.90
22081;DHT22;11207;59.512;18.050;2022-10-26T00:41:28;10.50;99.90
22081;DHT22;11207;59.512;18.050;2022-10-26T00:43:54;10.50;99.90
22081;DHT22;11207;59.512;18.050;2022-10-26T00:46:33;10.50;99.90
22081;DHT22;11207;59.512;18.050;2022-10-26T00:49:21;10.40;99.90
22081;DHT22;11207;59.512;18.050;2022-10-26T00:51:50;10.40;99.90
22081;DHT22;11207;59.512;18.050;2022-10-26T00:54:17;10.40;99.90
22081;DHT22;11207;59.512;18.050;2022-10-26T00:56:46;10.40;99.90
22081;DHT22;11207;59.512;18.050;2022-10-26T00:59:14;10.40;99.90
22081;DHT22;11207;59.512;18.050;2022-10-26T01:01:43;10.40;99.90
22081;DHT22;11207;59.512;18.050;2022-10-26T01:04:10;10.30;99.90
22081;DHT22;11207;59.512;18.050;2022-10-26T01:06:37;10.40;99.90
22081;DHT22;11207;59.512;18.050;2022-10-26T01:09:03;10.40;99.90
22081;DHT22;11207;59.512;18.050;2022-10-26T01:11:29;10.40;99.90
22081;DHT22;11207;59.512;18.050;2022-10-26T01:13:56;10.40;99.90
22081;DHT22;11207;59.512;18.050;2022-10-26T01:16:29;10.30;99.90
22081;DHT22;11207;59.512;18.050;2022-10-26T01:27:06;10.30;99.90
22081;DHT22;11207;59.512;18.050;2022-10-26T01:35:48;10.20;99.90
22081;DHT22;11207;59.512;18.050;2022-10-26T01:38:44;10.20;99.90
22081;DHT22;11207;59.512;18.050;2022-10-26T01:43:51;10.20;99.90
22081;DHT22;11207;59.512;18.050;2022-10-26T01:46:20;10.20;99.90
22081;DHT22;11207;59.512;18.050;2022-10-26T01:48:49;10.10;99.90
22081;DHT22;11207;59.512;18.050;2022-10-26T01:51:17;10.10;99.90
22081;DHT22;11207;59.512;18.050;2022-10-26T01:53:44;10.10;99.90
22081;DHT22;11207;59.512;18.050;2022-10-26T01:56:17;10.10;99.90
22081;DHT22;11207;59.512;18.050;2022-10-26T02:04:25;10.00;99.90
22081;DHT22;11207;59.512;18.050;2022-10-26T02:07:06;9.90;99.90
22081;DHT22;11207;59.512;18.050;2022-10-26T02:13:23;9.90;99.90
22081;DHT22;11207;59.512;18.050;2022-10-26T02:15:48;9.90;99.90
22081;DHT22;11207;59.512;18.050;2022-10-26T02:18:50;9.80;99.90
22081;DHT22;11207;59.512;18.050;2022-10-26T02:21:20;9.80;99.90
22081;DHT22;11207;59.512;18.050;2022-10-26T02:23:48;9.70;99.90
22081;DHT22;11207;59.512;18.050;2022-10-26T02:26:20;9.80;99.90
22081;DHT22;11207;59.512;18.050;2022-10-26T02:28:49;9.70;99.90
22081;DHT22;11207;59.512;18.050;2022-10-26T02:31:16;9.70;99.90
22081;DHT22;11207;59.512;18.050;2022-10-26T02:33:46;9.70;99.90
22081;DHT22;11207;59.512;18.050;2022-10-26T02:36:16;9.70;99.90
22081;DHT22;11207;59.512;18.050;2022-10-26T02:38:45;9.60;99.90
22081;DHT22;11207;59.512;18.050;2022-10-26T02:41:13;9.60;99.90
22081;DHT22;11207;59.512;18.050;2022-10-26T02:43:50;9.60;99.90
22081;DHT22;11207;59.512;18.050;2022-10-26T02:46:19;9.60;99.90
22081;DHT22;11207;59.512;18.050;2022-10-26T02:48:47;9.60;99.90
22081;DHT22;11207;59.512;18.050;2022-10-26T02:51:39;9.60;99.90
22081;DHT22;11207;59.512;18.050;2022-10-26T02:54:31;9.60;99.90
22081;DHT22;11207;59.512;18.050;2022-10-26T02:57:05;9.50;99.90
22081;DHT22;11207;59.512;18.050;2022-10-26T02:59:35;9.50;99.90
22081;DHT22;11207;59.512;18.050;2022-10-26T03:02:02;9.50;99.90
22081;DHT22;11207;59.512;18.050;2022-10-26T03:04:30;9.50;99.90
22081;DHT22;11207;59.512;18.050;2022-10-26T03:06:56;9.40;99.90
22081;DHT22;11207;59.512;18.050;2022-10-26T03:09:22;9.40;99.90
22081;DHT22;11207;59.512;18.050;2022-10-26T03:11:48;9.40;99.90
22081;DHT22;11207;59.512;18.050;2022-10-26T03:14:13;9.40;99.90
22081;DHT22;11207;59.512;18.050;2022-10-26T03:16:40;9.40;99.90
22081;DHT22;11207;59.512;18.050;2022-10-26T03:19:05;9.40;99.90
22081;DHT22;11207;59.512;18.050;2022-10-26T03:21:31;9.40;99.90
22081;DHT22;11207;59.512;18.050;2022-10-26T03:23:56;9.40;99.90
22081;DHT22;11207;59.512;18.050;2022-10-26T03:26:22;9.40;99.90
22081;DHT22;11207;59.512;18.050;2022-10-26T03:28:48;9.40;99.90
22081;DHT22;11207;59.512;18.050;2022-10-26T03:31:13;9.30;99.90
22081;DHT22;11207;59.512;18.050;2022-10-26T03:33:39;9.30;99.90
22081;DHT22;11207;59.512;18.050;2022-10-26T03:36:05;9.30;99.90
22081;DHT22;11207;59.512;18.050;2022-10-26T03:38:31;9.30;99.90
22081;DHT22;11207;59.512;18.050;2022-10-26T03:40:56;9.40;99.90
22081;DHT22;11207;59.512;18.050;2022-10-26T03:43:22;9.30;99.90
22081;DHT22;11207;59.512;18.050;2022-10-26T03:45:48;9.30;99.90
22081;DHT22;11207;59.512;18.050;2022-10-26T03:48:14;9.30;99.90
22081;DHT22;11207;59.512;18.050;2022-10-26T03:50:39;9.30;99.90
22081;DHT22;11207;59.512;18.050;2022-10-26T03:53:05;9.30;99.90
22081;DHT22;11207;59.512;18.050;2022-10-26T03:55:31;9.30;99.90
22081;DHT22;11207;59.512;18.050;2022-10-26T03:57:57;9.30;99.90
22081;DHT22;11207;59.512;18.050;2022-10-26T04:00:22;9.30;99.90
22081;DHT22;11207;59.512;18.050;2022-10-26T04:02:56;9.30;99.90
22081;DHT22;11207;59.512;18.050;2022-10-26T04:05:23;9.30;99.90
22081;DHT22;11207;59.512;18.050;2022-10-26T04:07:53;9.30;99.90
22081;DHT22;11207;59.512;18.050;2022-10-26T04:10:20;9.20;99.90
22081;DHT22;11207;59.512;18.050;2022-10-26T04:12:46;9.40;99.90
22081;DHT22;11207;59.512;18.050;2022-10-26T04:15:11;9.30;99.90
22081;DHT22;11207;59.512;18.050;2022-10-26T04:17:37;9.20;99.90
22081;DHT22;11207;59.512;18.050;2022-10-26T04:20:03;9.30;99.90
22081;DHT22;11207;59.512;18.050;2022-10-26T04:22:28;9.30;99.90
22081;DHT22;11207;59.512;18.050;2022-10-26T04:24:54;9.20;99.90
22081;DHT22;11207;59.512;18.050;2022-10-26T04:27:20;9.20;99.90
22081;DHT22;11207;59.512;18.050;2022-10-26T04:29:46;9.20;99.90
22081;DHT22;11207;59.512;18.050;2022-10-26T04:32:11;9.30;99.90
22081;DHT22;11207;59.512;18.050;2022-10-26T04:34:37;9.20;99.90
22081;DHT22;11207;59.512;18.050;2022-10-26T04:37:02;9.20;99.90
22081;DHT22;11207;59.512;18.050;2022-10-26T04:39:28;9.20;99.90
22081;DHT22;11207;59.512;18.050;2022-10-26T04:41:54;9.20;99.90
22081;DHT22;11207;59.512;18.050;2022-10-26T04:44:19;9.30;99.90
22081;DHT22;11207;59.512;18.050;2022-10-26T04:46:45;9.20;99.90
22081;DHT22;11207;59.512;18.050;2022-10-26T04:49:11;9.30;99.90
22081;DHT22;11207;59.512;18.050;2022-10-26T04:51:37;9.20;99.90
22081;DHT22;11207;59.512;18.050;2022-10-26T04:54:03;9.20;99.90
22081;DHT22;11207;59.512;18.050;2022-10-26T04:56:29;9.20;99.90
22081;DHT22;11207;59.512;18.050;2022-10-26T04:58:55;9.20;99.90
22081;DHT22;11207;59.512;18.050;2022-10-26T05:01:21;9.20;99.90
22081;DHT22;11207;59.512;18.050;2022-10-26T05:03:53;9.30;99.90
22081;DHT22;11207;59.512;18.050;2022-10-26T05:06:20;9.20;99.90
22081;DHT22;11207;59.512;18.050;2022-10-26T05:08:46;9.20;99.90
22081;DHT22;11207;59.512;18.050;2022-10-26T05:11:11;9.20;99.90
22081;DHT22;11207;59.512;18.050;2022-10-26T05:13:37;9.20;99.90
22081;DHT22;11207;59.512;18.050;2022-10-26T05:16:03;9.20;99.90
22081;DHT22;11207;59.512;18.050;2022-10-26T05:18:28;9.20;99.90
22081;DHT22;11207;59.512;18.050;2022-10-26T05:20:54;9.20;99.90
22081;DHT22;11207;59.512;18.050;2022-10-26T05:23:21;9.20;99.90
22081;DHT22;11207;59.512;18.050;2022-10-26T05:25:47;9.10;99.90
22081;DHT22;11207;59.512;18.050;2022-10-26T05:28:13;9.20;99.90
22081;DHT22;11207;59.512;18.050;2022-10-26T05:30:41;9.20;99.90
22081;DHT22;11207;59.512;18.050;2022-10-26T05:33:08;9.20;99.90
22081;DHT22;11207;59.512;18.050;2022-10-26T05:35:35;9.10;99.90
22081;DHT22;11207;59.512;18.050;2022-10-26T05:38:08;9.10;99.90
22081;DHT22;11207;59.512;18.050;2022-10-26T05:40:34;9.10;99.90
22081;DHT22;11207;59.512;18.050;2022-10-26T05:43:00;9.10;99.90
22081;DHT22;11207;59.512;18.050;2022-10-26T05:45:26;9.10;99.90
22081;DHT22;11207;59.512;18.050;2022-10-26T05:47:52;9.10;99.90
22081;DHT22;11207;59.512;18.050;2022-10-26T05:50:17;9.10;99.90
22081;DHT22;11207;59.512;18.050;2022-10-26T05:52:45;9.10;99.90
22081;DHT22;11207;59.512;18.050;2022-10-26T05:55:13;9.10;99.90
22081;DHT22;11207;59.512;18.050;2022-10-26T05:57:39;9.00;99.90
22081;DHT22;11207;59.512;18.050;2022-10-26T06:00:14;9.00;99.90
22081;DHT22;11207;59.512;18.050;2022-10-26T06:05:25;9.00;99.90
22081;DHT22;11207;59.512;18.050;2022-10-26T06:07:52;9.00;99.90
22081;DHT22;11207;59.512;18.050;2022-10-26T06:10:18;9.00;99.90
22081;DHT22;11207;59.512;18.050;2022-10-26T06:12:44;9.00;99.90
22081;DHT22;11207;59.512;18.050;2022-10-26T06:15:19;9.00;99.90
22081;DHT22;11207;59.512;18.050;2022-10-26T06:26:02;8.90;99.90
22081;DHT22;11207;59.512;18.050;2022-10-26T06:29:02;8.90;99.90
22081;DHT22;11207;59.512;18.050;2022-10-26T06:31:34;8.90;99.90
22081;DHT22;11207;59.512;18.050;2022-10-26T06:33:59;9.00;99.90
22081;DHT22;11207;59.512;18.050;2022-10-26T06:36:27;8.90;99.90
22081;DHT22;11207;59.512;18.050;2022-10-26T06:39:04;9.00;99.90
22081;DHT22;11207;59.512;18.050;2022-10-26T06:41:33;9.00;99.90
22081;DHT22;11207;59.512;18.050;2022-10-26T06:43:59;9.00;99.90
22081;DHT22;11207;59.512;18.050;2022-10-26T06:55:06;9.00;99.90
22081;DHT22;11207;59.512;18.050;2022-10-26T06:57:38;8.90;99.90
22081;DHT22;11207;59.512;18.050;2022-10-26T07:00:19;8.90;99.90
22081;DHT22;11207;59.512;18.050;2022-10-26T07:02:46;9.00;99.90
22081;DHT22;11207;59.512;18.050;2022-10-26T07:05:12;9.00;99.90
22081;DHT22;11207;59.512;18.050;2022-10-26T07:07:45;9.00;99.90
22081;DHT22;11207;59.512;18.050;2022-10-26T07:10:13;9.00;99.90
22081;DHT22;11207;59.512;18.050;2022-10-26T07:12:39;9.00;99.90
22081;DHT22;11207;59.512;18.050;2022-10-26T07:15:05;9.00;99.90
22081;DHT22;11207;59.512;18.050;2022-10-26T07:17:44;9.00;99.90
22081;DHT22;11207;59.512;18.050;2022-10-26T07:20:11;9.10;99.90
22081;DHT22;11207;59.512;18.050;2022-10-26T07:22:36;9.00;99.90
22081;DHT22;11207;59.512;18.050;2022-10-26T07:25:03;9.00;99.90
22081;DHT22;11207;59.512;18.050;2022-10-26T07:27:28;9.10;99.90
22081;DHT22;11207;59.512;18.050;2022-10-26T07:29:54;9.10;99.90
22081;DHT22;11207;59.512;18.050;2022-10-26T07:32:20;9.10;99.90
22081;DHT22;11207;59.512;18.050;2022-10-26T07:34:45;9.10;99.90
22081;DHT22;11207;59.512;18.050;2022-10-26T07:37:11;9.10;99.90
22081;DHT22;11207;59.512;18.050;2022-10-26T07:39:36;9.10;99.90
22081;DHT22;11207;59.512;18.050;2022-10-26T07:42:02;9.10;99.90
22081;DHT22;11207;59.512;18.050;2022-10-26T07:44:28;9.10;99.90
22081;DHT22;11207;59.512;18.050;2022-10-26T07:46:53;9.10;99.90
22081;DHT22;11207;59.512;18.050;2022-10-26T07:49:19;9.10;99.90
22081;DHT22;11207;59.512;18.050;2022-10-26T07:51:45;9.10;99.90
22081;DHT22;11207;59.512;18.050;2022-10-26T07:54:10;9.20;99.90
22081;DHT22;11207;59.512;18.050;2022-10-26T07:56:36;9.20;99.90
22081;DHT22;11207;59.512;18.050;2022-10-26T07:59:01;9.20;99.90
22081;DHT22;11207;59.512;18.050;2022-10-26T08:01:27;9.20;99.90
22081;DHT22;11207;59.512;18.050;2022-10-26T08:03:53;9.20;99.90
22081;DHT22;11207;59.512;18.050;2022-10-26T08:06:20;9.30;99.90
22081;DHT22;11207;59.512;18.050;2022-10-26T08:08:46;9.30;99.90
22081;DHT22;11207;59.512;18.050;2022-10-26T08:11:12;9.40;99.90
22081;DHT22;11207;59.512;18.050;2022-10-26T08:13:38;9.30;99.90
22081;DHT22;11207;59.512;18.050;2022-10-26T08:16:04;9.40;99.90
22081;DHT22;11207;59.512;18.050;2022-10-26T08:18:30;9.40;99.90
22081;DHT22;11207;59.512;18.050;2022-10-26T08:21:02;9.40;99.90
22081;DHT22;11207;59.512;18.050;2022-10-26T08:23:28;9.40;99.90
22081;DHT22;11207;59.512;18.050;2022-10-26T08:26:00;9.40;99.90
22081;DHT22;11207;59.512;18.050;2022-10-26T08:28:27;9.40;99.90
22081;DHT22;11207;59.512;18.050;2022-10-26T08:30:53;9.40;99.90
22081;DHT22;11207;59.512;18.050;2022-10-26T08:33:19;9.40;99.90
22081;DHT22;11207;59.512;18.050;2022-10-26T08:35:44;9.50;99.90
22081;DHT22;11207;59.512;18.050;2022-10-26T08:38:10;9.50;99.90
22081;DHT22;11207;59.512;18.050;2022-10-26T08:40:38;9.50;99.90
22081;DHT22;11207;59.512;18.050;2022-10-26T08:43:16;9.50;99.90
22081;DHT22;11207;59.512;18.050;2022-10-26T08:45:51;9.60;99.90
22081;DHT22;11207;59.512;18.050;2022-10-26T08:48:22;9.60;99.90
22081;DHT22;11207;59.512;18.050;2022-10-26T08:50:58;9.60;99.90
22081;DHT22;11207;59.512;18.050;2022-10-26T08:53:28;9.60;99.90
22081;DHT22;11207;59.512;18.050;2022-10-26T08:56:02;9.50;99.90
22081;DHT22;11207;59.512;18.050;2022-10-26T08:58:39;9.60;99.90
22081;DHT22;11207;59.512;18.050;2022-10-26T09:01:07;9.60;99.90
22081;DHT22;11207;59.512;18.050;2022-10-26T09:03:33;9.60;99.90
22081;DHT22;11207;59.512;18.050;2022-10-26T09:06:16;9.60;99.90
22081;DHT22;11207;59.512;18.050;2022-10-26T09:14:50;9.60;99.90
22081;DHT22;11207;59.512;18.050;2022-10-26T09:20:06;9.70;99.90
22081;DHT22;11207;59.512;18.050;2022-10-26T09:22:41;9.70;99.90
22081;DHT22;11207;59.512;18.050;2022-10-26T09:25:24;9.70;99.90
22081;DHT22;11207;59.512;18.050;2022-10-26T09:28:00;9.70;99.90
22081;DHT22;11207;59.512;18.050;2022-10-26T09:30:26;9.80;99.90
22081;DHT22;11207;59.512;18.050;2022-10-26T09:32:56;9.80;99.90
22081;DHT22;11207;59.512;18.050;2022-10-26T09:35:46;9.80;99.90
22081;DHT22;11207;59.512;18.050;2022-10-26T09:38:39;9.90;99.90
22081;DHT22;11207;59.512;18.050;2022-10-26T09:41:26;9.90;99.90
22081;DHT22;11207;59.512;18.050;2022-10-26T09:49:14;10.00;99.90
22081;DHT22;11207;59.512;18.050;2022-10-26T09:51:43;10.00;99.90
22081;DHT22;11207;59.512;18.050;2022-10-26T09:54:17;10.00;99.90
22081;DHT22;11207;59.512;18.050;2022-10-26T09:56:46;10.00;99.90
22081;DHT22;11207;59.512;18.050;2022-10-26T09:59:14;10.00;99.90
22081;DHT22;11207;59.512;18.050;2022-10-26T10:01:42;10.10;99.90
22081;DHT22;11207;59.512;18.050;2022-10-26T10:06:45;10.10;99.90
22081;DHT22;11207;59.512;18.050;2022-10-26T10:09:19;10.20;99.90
22081;DHT22;11207;59.512;18.050;2022-10-26T10:11:58;10.20;99.90
22081;DHT22;11207;59.512;18.050;2022-10-26T10:14:30;10.20;99.90
22081;DHT22;11207;59.512;18.050;2022-10-26T10:16:59;10.20;99.90
22081;DHT22;11207;59.512;18.050;2022-10-26T10:19:34;10.20;99.90
22081;DHT22;11207;59.512;18.050;2022-10-26T10:22:23;10.30;99.90
22081;DHT22;11207;59.512;18.050;2022-10-26T10:27:23;10.30;99.90
22081;DHT22;11207;59.512;18.050;2022-10-26T10:29:54;10.30;99.90
22081;DHT22;11207;59.512;18.050;2022-10-26T10:32:27;10.20;99.90
22081;DHT22;11207;59.512;18.050;2022-10-26T10:34:59;10.10;99.90
22081;DHT22;11207;59.512;18.050;2022-10-26T10:37:35;10.10;99.90
22081;DHT22;11207;59.512;18.050;2022-10-26T10:40:07;10.10;99.90
22081;DHT22;11207;59.512;18.050;2022-10-26T10:42:36;10.20;99.90
22081;DHT22;11207;59.512;18.050;2022-10-26T10:45:04;10.10;99.90
22081;DHT22;11207;59.512;18.050;2022-10-26T10:47:33;10.10;99.90
22081;DHT22;11207;59.512;18.050;2022-10-26T10:50:01;10.10;99.90
22081;DHT22;11207;59.512;18.050;2022-10-26T10:52:30;10.10;99.90
22081;DHT22;11207;59.512;18.050;2022-10-26T11:00:09;10.10;99.90
22081;DHT22;11207;59.512;18.050;2022-10-26T11:03:03;10.10;99.90
22081;DHT22;11207;59.512;18.050;2022-10-26T11:09:01;10.00;99.90
22081;DHT22;11207;59.512;18.050;2022-10-26T11:11:41;10.00;99.90
22081;DHT22;11207;59.512;18.050;2022-10-26T11:14:13;10.00;99.90
22081;DHT22;11207;59.512;18.050;2022-10-26T11:16:46;10.00;99.90
22081;DHT22;11207;59.512;18.050;2022-10-26T11:19:24;10.00;99.90
22081;DHT22;11207;59.512;18.050;2022-10-26T11:21:54;9.90;99.90
22081;DHT22;11207;59.512;18.050;2022-10-26T11:25:19;9.90;99.90
22081;DHT22;11207;59.512;18.050;2022-10-26T11:27:30;9.90;99.90
22081;DHT22;11207;59.512;18.050;2022-10-26T11:30:14;9.90;99.90
22081;DHT22;11207;59.512;18.050;2022-10-26T11:33:06;9.90;99.90
22081;DHT22;11207;59.512;18.050;2022-10-26T11:38:38;9.90;99.90
22081;DHT22;11207;59.512;18.050;2022-10-26T11:41:18;9.80;99.90
22081;DHT22;11207;59.512;18.050;2022-10-26T11:43:46;9.70;99.90
22081;DHT22;11207;59.512;18.050;2022-10-26T11:46:17;9.80;99.90
22081;DHT22;11207;59.512;18.050;2022-10-26T11:54:19;9.90;99.90
22081;DHT22;11207;59.512;18.050;2022-10-26T11:56:49;9.90;99.90
22081;DHT22;11207;59.512;18.050;2022-10-26T11:59:27;9.80;99.90
22081;DHT22;11207;59.512;18.050;2022-10-26T12:02:20;9.80;99.90
22081;DHT22;11207;59.512;18.050;2022-10-26T12:05:21;9.80;99.90
22081;DHT22;11207;59.512;18.050;2022-10-26T12:07:55;9.80;99.90
22081;DHT22;11207;59.512;18.050;2022-10-26T12:10:29;9.80;99.90
22081;DHT22;11207;59.512;18.050;2022-10-26T12:15:46;9.70;99.90
22081;DHT22;11207;59.512;18.050;2022-10-26T12:18:19;9.70;99.90
22081;DHT22;11207;59.512;18.050;2022-10-26T12:20:59;9.70;99.90
22081;DHT22;11207;59.512;18.050;2022-10-26T12:23:33;9.70;99.90
22081;DHT22;11207;59.512;18.050;2022-10-26T12:34:00;9.60;99.90
22081;DHT22;11207;59.512;18.050;2022-10-26T12:36:48;9.60;99.90
22081;DHT22;11207;59.512;18.050;2022-10-26T12:39:28;9.60;99.90
22081;DHT22;11207;59.512;18.050;2022-10-26T12:45:01;9.60;99.90
22081;DHT22;11207;59.512;18.050;2022-10-26T13:09:29;9.60;99.90
22081;DHT22;11207;59.512;18.050;2022-10-26T13:11:59;9.60;99.90
22081;DHT22;11207;59.512;18.050;2022-10-26T13:14:33;9.50;99.90
22081;DHT22;11207;59.512;18.050;2022-10-26T13:17:01;9.60;99.90
22081;DHT22;11207;59.512;18.050;2022-10-26T13:19:41;9.60;99.90
22081;DHT22;11207;59.512;18.050;2022-10-26T13:22:13;9.50;99.90
22081;DHT22;11207;59.512;18.050;2022-10-26T13:24:47;9.50;99.90
22081;DHT22;11207;59.512;18.050;2022-10-26T13:30:18;9.40;99.90
22081;DHT22;11207;59.512;18.050;2022-10-26T13:32:51;9.50;99.90
22081;DHT22;11207;59.512;18.050;2022-10-26T13:35:19;9.50;99.90
22081;DHT22;11207;59.512;18.050;2022-10-26T13:37:47;9.50;99.90
22081;DHT22;11207;59.512;18.050;2022-10-26T13:40:22;9.60;99.90
22081;DHT22;11207;59.512;18.050;2022-10-26T13:43:02;9.50;99.90
22081;DHT22;11207;59.512;18.050;2022-10-26T13:45:30;9.50;99.90
22081;DHT22;11207;59.512;18.050;2022-10-26T13:50:52;9.40;99.90
22081;DHT22;11207;59.512;18.050;2022-10-26T13:53:46;9.40;99.90
22081;DHT22;11207;59.512;18.050;2022-10-26T13:56:21;9.40;99.90
22081;DHT22;11207;59.512;18.050;2022-10-26T13:58:59;9.40;99.90
22081;DHT22;11207;59.512;18.050;2022-10-26T14:01:26;9.40;99.90
22081;DHT22;11207;59.512;18.050;2022-10-26T14:03:53;9.40;99.90
22081;DHT22;11207;59.512;18.050;2022-10-26T14:08:52;9.40;99.90
22081;DHT22;11207;59.512;18.050;2022-10-26T14:11:25;9.40;99.90
22081;DHT22;11207;59.512;18.050;2022-10-26T14:13:52;9.40;99.90
22081;DHT22;11207;59.512;18.050;2022-10-26T14:16:19;9.30;99.90
22081;DHT22;11207;59.512;18.050;2022-10-26T14:18:48;9.40;99.90
22081;DHT22;11207;59.512;18.050;2022-10-26T14:21:21;9.40;99.90
22081;DHT22;11207;59.512;18.050;2022-10-26T14:23:58;9.40;99.90
22081;DHT22;11207;59.512;18.050;2022-10-26T14:26:28;9.40;99.90
22081;DHT22;11207;59.512;18.050;2022-10-26T14:28:57;9.40;99.90
22081;DHT22;11207;59.512;18.050;2022-10-26T14:31:29;9.40;99.90
22081;DHT22;11207;59.512;18.050;2022-10-26T14:33:56;9.40;99.90
22081;DHT22;11207;59.512;18.050;2022-10-26T14:36:31;9.40;99.90
22081;DHT22;11207;59.512;18.050;2022-10-26T14:39:02;9.40;99.90
22081;DHT22;11207;59.512;18.050;2022-10-26T14:41:31;9.50;99.90
22081;DHT22;11207;59.512;18.050;2022-10-26T14:43:59;9.30;99.90
22081;DHT22;11207;59.512;18.050;2022-10-26T14:46:26;9.40;99.90
22081;DHT22;11207;59.512;18.050;2022-10-26T14:48:55;9.30;99.90
22081;DHT22;11207;59.512;18.050;2022-10-26T14:51:26;9.40;99.90
22081;DHT22;11207;59.512;18.050;2022-10-26T14:53:55;9.30;99.90
22081;DHT22;11207;59.512;18.050;2022-10-26T14:56:29;9.30;99.90
22081;DHT22;11207;59.512;18.050;2022-10-26T14:58:55;9.30;99.90
22081;DHT22;11207;59.512;18.050;2022-10-26T15:03:54;9.30;99.90
22081;DHT22;11207;59.512;18.050;2022-10-26T15:08:56;9.30;99.90
22081;DHT22;11207;59.512;18.050;2022-10-26T15:11:23;9.20;99.90
22081;DHT22;11207;59.512;18.050;2022-10-26T15:13:49;9.20;99.90
22081;DHT22;11207;59.512;18.050;2022-10-26T15:16:20;9.20;99.90
22081;DHT22;11207;59.512;18.050;2022-10-26T15:18:59;9.20;99.90
22081;DHT22;11207;59.512;18.050;2022-10-26T15:21:42;9.20;99.90
22081;DHT22;11207;59.512;18.050;2022-10-26T15:24:34;9.20;99.90
22081;DHT22;11207;59.512;18.050;2022-10-26T15:27:01;9.20;99.90
22081;DHT22;11207;59.512;18.050;2022-10-26T15:32:24;9.10;99.90
22081;DHT22;11207;59.512;18.050;2022-10-26T15:37:46;9.10;99.90
22081;DHT22;11207;59.512;18.050;2022-10-26T15:40:13;9.10;99.90
22081;DHT22;11207;59.512;18.050;2022-10-26T15:42:40;9.10;99.90
22081;DHT22;11207;59.512;18.050;2022-10-26T15:45:30;9.10;99.90
22081;DHT22;11207;59.512;18.050;2022-10-26T15:47:59;9.10;99.90
22081;DHT22;11207;59.512;18.050;2022-10-26T15:50:39;9.00;99.90
22081;DHT22;11207;59.512;18.050;2022-10-26T15:53:11;9.00;99.90
22081;DHT22;11207;59.512;18.050;2022-10-26T15:55:39;9.10;99.90
22081;DHT22;11207;59.512;18.050;2022-10-26T15:58:08;9.00;99.90
22081;DHT22;11207;59.512;18.050;2022-10-26T16:00:34;9.00;99.90
22081;DHT22;11207;59.512;18.050;2022-10-26T16:03:01;9.00;99.90
22081;DHT22;11207;59.512;18.050;2022-10-26T16:05:27;9.00;99.90
22081;DHT22;11207;59.512;18.050;2022-10-26T16:07:52;9.00;99.90
22081;DHT22;11207;59.512;18.050;2022-10-26T16:10:23;9.00;99.90
22081;DHT22;11207;59.512;18.050;2022-10-26T16:12:49;9.00;99.90
22081;DHT22;11207;59.512;18.050;2022-10-26T16:15:17;9.00;99.90
22081;DHT22;11207;59.512;18.050;2022-10-26T16:17:44;9.00;99.90
22081;DHT22;11207;59.512;18.050;2022-10-26T16:20:13;8.90;99.90
22081;DHT22;11207;59.512;18.050;2022-10-26T16:22:40;8.90;99.90
22081;DHT22;11207;59.512;18.050;2022-10-26T16:25:11;8.90;99.90
22081;DHT22;11207;59.512;18.050;2022-10-26T16:27:37;9.00;99.90
22081;DHT22;11207;59.512;18.050;2022-10-26T16:30:03;9.00;99.90
22081;DHT22;11207;59.512;18.050;2022-10-26T16:32:28;9.00;99.90
22081;DHT22;11207;59.512;18.050;2022-10-26T16:34:54;8.90;99.90
22081;DHT22;11207;59.512;18.050;2022-10-26T16:37:20;8.90;99.90
22081;DHT22;11207;59.512;18.050;2022-10-26T16:39:45;8.90;99.90
22081;DHT22;11207;59.512;18.050;2022-10-26T16:42:11;8.90;99.90
22081;DHT22;11207;59.512;18.050;2022-10-26T16:44:37;8.90;99.90
22081;DHT22;11207;59.512;18.050;2022-10-26T16:47:03;8.90;99.90
22081;DHT22;11207;59.512;18.050;2022-10-26T16:49:28;8.90;99.90
22081;DHT22;11207;59.512;18.050;2022-10-26T16:51:54;8.90;99.90
22081;DHT22;11207;59.512;18.050;2022-10-26T16:54:21;8.90;99.90
22081;DHT22;11207;59.512;18.050;2022-10-26T16:56:48;8.80;99.90
22081;DHT22;11207;59.512;18.050;2022-10-26T16:59:14;8.80;99.90
22081;DHT22;11207;59.512;18.050;2022-10-26T17:01:39;8.80;99.90
22081;DHT22;11207;59.512;18.050;2022-10-26T17:04:05;8.90;99.90
22081;DHT22;11207;59.512;18.050;2022-10-26T17:06:30;8.80;99.90
22081;DHT22;11207;59.512;18.050;2022-10-26T17:08:56;8.90;99.90
22081;DHT22;11207;59.512;18.050;2022-10-26T17:11:22;8.90;99.90
22081;DHT22;11207;59.512;18.050;2022-10-26T17:13:52;8.80;99.90
22081;DHT22;11207;59.512;18.050;2022-10-26T17:16:20;8.80;99.90
22081;DHT22;11207;59.512;18.050;2022-10-26T17:18:47;8.80;99.90
22081;DHT22;11207;59.512;18.050;2022-10-26T17:21:14;8.80;99.90
22081;DHT22;11207;59.512;18.050;2022-10-26T17:23:40;8.80;99.90
22081;DHT22;11207;59.512;18.050;2022-10-26T17:26:08;8.80;99.90
22081;DHT22;11207;59.512;18.050;2022-10-26T17:28:34;8.80;99.90
22081;DHT22;11207;59.512;18.050;2022-10-26T17:31:10;8.80;99.90
22081;DHT22;11207;59.512;18.050;2022-10-26T17:33:38;8.80;99.90
22081;DHT22;11207;59.512;18.050;2022-10-26T17:36:06;8.80;99.90
22081;DHT22;11207;59.512;18.050;2022-10-26T17:38:33;8.80;99.90
22081;DHT22;11207;59.512;18.050;2022-10-26T17:41:00;8.80;99.90
22081;DHT22;11207;59.512;18.050;2022-10-26T17:43:29;8.80;99.90
22081;DHT22;11207;59.512;18.050;2022-10-26T17:46:03;8.80;99.90
22081;DHT22;11207;59.512;18.050;2022-10-26T17:48:30;8.80;99.90
22081;DHT22;11207;59.512;18.050;2022-10-26T17:51:00;8.80;99.90
22081;DHT22;11207;59.512;18.050;2022-10-26T17:53:26;8.80;99.90
22081;DHT22;11207;59.512;18.050;2022-10-26T17:56:00;8.80;99.90
22081;DHT22;11207;59.512;18.050;2022-10-26T17:58:26;8.70;99.90
22081;DHT22;11207;59.512;18.050;2022-10-26T18:00:53;8.90;99.90